sensor_id;sensor_type;location;lat;lon;timestamp;pressure;altitude;pressure_sealevel;temperature;humidity
11049;BME280;5577;42.706;23.160;2023-05-02T00:00:32;94479.13;;;8.03;100.00
11049;BME280;5577;42.706;23.160;2023-05-02T00:03:16;94460.22;;;8.01;100.00
11049;BME280;5577;42.706;23.160;2023-05-02T00:06:00;94468.38;;;7.87;100.00
11049;BME280;5577;42.706;23.160;2023-05-02T00:08:44;94444.50;;;7.84;100.00
11049;BME280;5577;42.706;23.160;2023-05-02T00:11:28;94461.81;;;7.93;100.00
11049;BME280;5577;42.706;23.160;2023-05-02T00:14:12;94462.09;;;7.71;100.00
11049;BME280;5577;42.706;23.160;2023-05-02T00:16:56;94464.44;;;7.73;100.00
11049;BME280;5577;42.706;23.160;2023-05-02T00:19:40;94464.31;;;7.69;100.00
11049;BME280;5577;42.706;23.160;2023-05-02T00:22:23;94461.22;;;7.67;100.00
11049;BME280;5577;42.706;23.160;2023-05-02T00:25:08;94476.66;;;7.77;100.00
11049;BME280;5577;42.706;23.160;2023-05-02T00:27:52;94394.25;;;7.19;100.00
11049;BME280;5577;42.706;23.160;2023-05-02T00:30:36;94447.03;;;7.51;100.00
11049;BME280;5577;42.706;23.160;2023-05-02T00:33:20;94418.97;;;7.26;100.00
11049;BME280;5577;42.706;23.160;2023-05-02T00:36:04;94487.56;;;7.67;100.00
11049;BME280;5577;42.706;23.160;2023-05-02T00:38:48;94482.66;;;7.57;100.00
11049;BME280;5577;42.706;23.160;2023-05-02T00:41:32;94486.38;;;7.56;100.00
11049;BME280;5577;42.706;23.160;2023-05-02T00:44:16;94487.50;;;7.47;100.00
11049;BME280;5577;42.706;23.160;2023-05-02T00:47:01;94513.53;;;7.48;100.00
11049;BME280;5577;42.706;23.160;2023-05-02T00:49:45;94498.13;;;7.59;100.00
11049;BME280;5577;42.706;23.160;2023-05-02T00:52:29;94421.38;;;7.02;100.00
11049;BME280;5577;42.706;23.160;2023-05-02T00:55:13;94489.69;;;7.45;100.00
11049;BME280;5577;42.706;23.160;2023-05-02T00:57:57;94493.72;;;7.42;100.00
11049;BME280;5577;42.706;23.160;2023-05-02T01:13:24;94484.56;;;7.48;100.00
11049;BME280;5577;42.706;23.160;2023-05-02T01:16:10;94480.09;;;7.40;100.00
11049;BME280;5577;42.706;23.160;2023-05-02T01:18:56;94479.69;;;7.30;100.00
11049;BME280;5577;42.706;23.160;2023-05-02T01:21:42;94475.97;;;7.22;100.00
11049;BME280;5577;42.706;23.160;2023-05-02T01:24:55;94484.03;;;7.26;100.00
11049;BME280;5577;42.706;23.160;2023-05-02T01:27:55;94483.91;;;7.14;100.00
11049;BME280;5577;42.706;23.160;2023-05-02T01:30:43;94470.19;;;7.00;100.00
11049;BME280;5577;42.706;23.160;2023-05-02T01:33:29;94484.09;;;7.09;100.00
11049;BME280;5577;42.706;23.160;2023-05-02T01:36:15;94487.63;;;7.13;100.00
11049;BME280;5577;42.706;23.160;2023-05-02T01:39:01;94479.28;;;7.11;100.00
11049;BME280;5577;42.706;23.160;2023-05-02T01:41:51;94486.72;;;7.09;100.00
11049;BME280;5577;42.706;23.160;2023-05-02T01:44:36;94457.22;;;6.86;100.00
11049;BME280;5577;42.706;23.160;2023-05-02T01:47:21;94434.50;;;6.73;100.00
11049;BME280;5577;42.706;23.160;2023-05-02T01:50:07;94493.06;;;7.08;100.00
11049;BME280;5577;42.706;23.160;2023-05-02T01:52:55;94481.19;;;7.02;100.00
11049;BME280;5577;42.706;23.160;2023-05-02T01:55:43;94480.69;;;7.08;100.00
11049;BME280;5577;42.706;23.160;2023-05-02T01:58:29;94496.81;;;6.98;100.00
11049;BME280;5577;42.706;23.160;2023-05-02T02:01:15;94417.72;;;6.32;100.00
11049;BME280;5577;42.706;23.160;2023-05-02T02:04:00;94495.00;;;6.73;100.00
11049;BME280;5577;42.706;23.160;2023-05-02T02:06:49;94474.16;;;6.60;100.00
11049;BME280;5577;42.706;23.160;2023-05-02T02:09:35;94487.41;;;6.80;100.00
11049;BME280;5577;42.706;23.160;2023-05-02T02:12:26;94480.16;;;6.69;100.00
11049;BME280;5577;42.706;23.160;2023-05-02T02:18:13;94405.50;;;6.27;100.00
11049;BME280;5577;42.706;23.160;2023-05-02T02:20:58;94425.13;;;6.47;100.00
11049;BME280;5577;42.706;23.160;2023-05-02T02:23:45;94479.22;;;6.82;100.00
11049;BME280;5577;42.706;23.160;2023-05-02T02:26:32;94493.59;;;6.84;100.00
11049;BME280;5577;42.706;23.160;2023-05-02T02:29:16;94492.84;;;6.84;100.00
11049;BME280;5577;42.706;23.160;2023-05-02T02:31:59;94487.41;;;6.80;100.00
11049;BME280;5577;42.706;23.160;2023-05-02T02:34:44;94435.16;;;6.45;100.00
11049;BME280;5577;42.706;23.160;2023-05-02T02:37:38;94463.94;;;6.67;100.00
11049;BME280;5577;42.706;23.160;2023-05-02T02:40:27;94495.78;;;6.82;100.00
11049;BME280;5577;42.706;23.160;2023-05-02T02:49:20;94495.78;;;6.74;100.00
11049;BME280;5577;42.706;23.160;2023-05-02T02:52:17;94494.88;;;6.70;100.00
11049;BME280;5577;42.706;23.160;2023-05-02T02:55:09;94512.66;;;6.73;100.00
11049;BME280;5577;42.706;23.160;2023-05-02T03:01:02;94514.34;;;6.77;100.00
11049;BME280;5577;42.706;23.160;2023-05-02T03:03:48;94511.59;;;6.57;100.00
11049;BME280;5577;42.706;23.160;2023-05-02T03:06:32;94511.91;;;6.64;100.00
11049;BME280;5577;42.706;23.160;2023-05-02T03:09:16;94519.31;;;6.53;100.00
11049;BME280;5577;42.706;23.160;2023-05-02T03:12:01;94524.28;;;6.55;100.00
11049;BME280;5577;42.706;23.160;2023-05-02T03:14:45;94522.41;;;6.64;100.00
11049;BME280;5577;42.706;23.160;2023-05-02T03:17:30;94529.09;;;6.61;100.00
11049;BME280;5577;42.706;23.160;2023-05-02T03:20:14;94503.41;;;6.33;100.00
11049;BME280;5577;42.706;23.160;2023-05-02T03:22:58;94525.34;;;6.37;100.00
11049;BME280;5577;42.706;23.160;2023-05-02T03:25:41;94527.06;;;6.33;100.00
11049;BME280;5577;42.706;23.160;2023-05-02T03:28:25;94527.38;;;6.31;100.00
11049;BME280;5577;42.706;23.160;2023-05-02T03:31:09;94538.50;;;6.28;100.00
11049;BME280;5577;42.706;23.160;2023-05-02T03:33:53;94458.72;;;5.81;100.00
11049;BME280;5577;42.706;23.160;2023-05-02T03:36:37;94532.31;;;6.33;100.00
11049;BME280;5577;42.706;23.160;2023-05-02T03:39:21;94532.94;;;6.47;100.00
11049;BME280;5577;42.706;23.160;2023-05-02T03:42:05;94523.22;;;6.47;100.00
11049;BME280;5577;42.706;23.160;2023-05-02T03:44:51;94532.78;;;6.60;100.00
11049;BME280;5577;42.706;23.160;2023-05-02T03:47:35;94509.28;;;6.47;100.00
11049;BME280;5577;42.706;23.160;2023-05-02T03:50:20;94540.97;;;6.76;100.00
11049;BME280;5577;42.706;23.160;2023-05-02T03:53:04;94531.84;;;6.82;100.00
11049;BME280;5577;42.706;23.160;2023-05-02T03:55:48;94537.72;;;6.87;100.00
11049;BME280;5577;42.706;23.160;2023-05-02T03:58:32;94537.81;;;7.08;100.00
11049;BME280;5577;42.706;23.160;2023-05-02T04:01:16;94538.75;;;7.12;100.00
11049;BME280;5577;42.706;23.160;2023-05-02T04:04:01;94548.28;;;7.33;100.00
11049;BME280;5577;42.706;23.160;2023-05-02T04:06:45;94542.38;;;7.45;100.00
11049;BME280;5577;42.706;23.160;2023-05-02T04:09:29;94536.63;;;7.43;100.00
11049;BME280;5577;42.706;23.160;2023-05-02T04:12:14;94489.47;;;7.21;100.00
11049;BME280;5577;42.706;23.160;2023-05-02T04:14:58;94549.81;;;7.80;100.00
11049;BME280;5577;42.706;23.160;2023-05-02T04:17:42;94548.44;;;8.03;100.00
11049;BME280;5577;42.706;23.160;2023-05-02T04:20:26;94543.56;;;8.14;100.00
11049;BME280;5577;42.706;23.160;2023-05-02T04:23:10;94548.25;;;8.37;100.00
11049;BME280;5577;42.706;23.160;2023-05-02T04:25:54;94547.34;;;8.54;100.00
11049;BME280;5577;42.706;23.160;2023-05-02T04:28:39;94540.47;;;8.61;100.00
11049;BME280;5577;42.706;23.160;2023-05-02T04:31:23;94540.72;;;8.68;100.00
11049;BME280;5577;42.706;23.160;2023-05-02T04:34:07;94539.88;;;8.76;100.00
11049;BME280;5577;42.706;23.160;2023-05-02T04:36:51;94545.97;;;8.89;100.00
11049;BME280;5577;42.706;23.160;2023-05-02T04:39:35;94454.75;;;8.47;100.00
11049;BME280;5577;42.706;23.160;2023-05-02T04:42:19;94548.19;;;9.32;100.00
11049;BME280;5577;42.706;23.160;2023-05-02T04:45:03;94542.28;;;9.47;100.00
11049;BME280;5577;42.706;23.160;2023-05-02T04:47:47;94539.63;;;9.59;100.00
11049;BME280;5577;42.706;23.160;2023-05-02T04:50:31;94537.78;;;9.83;100.00
11049;BME280;5577;42.706;23.160;2023-05-02T04:53:15;94537.25;;;10.02;100.00
11049;BME280;5577;42.706;23.160;2023-05-02T04:55:59;94535.34;;;10.02;100.00
11049;BME280;5577;42.706;23.160;2023-05-02T04:58:43;94546.06;;;10.18;100.00
11049;BME280;5577;42.706;23.160;2023-05-02T05:01:27;94534.78;;;10.33;100.00
11049;BME280;5577;42.706;23.160;2023-05-02T05:04:11;94496.56;;;10.18;100.00
11049;BME280;5577;42.706;23.160;2023-05-02T05:06:55;94530.31;;;10.61;100.00
11049;BME280;5577;42.706;23.160;2023-05-02T05:09:39;94532.69;;;10.78;100.00
11049;BME280;5577;42.706;23.160;2023-05-02T05:12:23;94528.56;;;10.92;100.00
11049;BME280;5577;42.706;23.160;2023-05-02T05:15:07;94532.78;;;11.09;100.00
11049;BME280;5577;42.706;23.160;2023-05-02T05:17:52;94532.09;;;11.12;100.00
11049;BME280;5577;42.706;23.160;2023-05-02T05:20:36;94536.47;;;11.20;100.00
11049;BME280;5577;42.706;23.160;2023-05-02T05:23:19;94531.47;;;11.30;100.00
11049;BME280;5577;42.706;23.160;2023-05-02T05:26:16;94457.75;;;11.05;100.00
11049;BME280;5577;42.706;23.160;2023-05-02T05:29:00;94532.28;;;11.62;100.00
11049;BME280;5577;42.706;23.160;2023-05-02T05:31:44;94547.00;;;11.75;100.00
11049;BME280;5577;42.706;23.160;2023-05-02T05:34:28;94543.06;;;11.85;100.00
11049;BME280;5577;42.706;23.160;2023-05-02T05:37:12;94522.28;;;11.71;100.00
11049;BME280;5577;42.706;23.160;2023-05-02T05:39:56;94547.41;;;12.08;100.00
11049;BME280;5577;42.706;23.160;2023-05-02T05:42:40;94538.72;;;12.27;100.00
11049;BME280;5577;42.706;23.160;2023-05-02T05:45:23;94541.19;;;12.35;100.00
11049;BME280;5577;42.706;23.160;2023-05-02T05:48:07;94543.03;;;12.50;100.00
11049;BME280;5577;42.706;23.160;2023-05-02T05:50:51;94546.66;;;12.42;100.00
11049;BME280;5577;42.706;23.160;2023-05-02T05:53:35;94536.72;;;12.39;100.00
11049;BME280;5577;42.706;23.160;2023-05-02T05:56:19;94544.56;;;12.67;100.00
11049;BME280;5577;42.706;23.160;2023-05-02T05:59:04;94539.84;;;12.60;100.00
11049;BME280;5577;42.706;23.160;2023-05-02T06:01:49;94552.09;;;12.65;100.00
11049;BME280;5577;42.706;23.160;2023-05-02T06:04:33;94553.34;;;12.90;100.00
11049;BME280;5577;42.706;23.160;2023-05-02T06:07:17;94547.00;;;12.94;100.00
11049;BME280;5577;42.706;23.160;2023-05-02T06:10:01;94550.78;;;12.93;100.00
11049;BME280;5577;42.706;23.160;2023-05-02T06:12:45;94533.38;;;13.15;100.00
11049;BME280;5577;42.706;23.160;2023-05-02T06:15:32;94539.09;;;13.36;100.00
11049;BME280;5577;42.706;23.160;2023-05-02T06:18:16;94537.50;;;13.54;100.00
11049;BME280;5577;42.706;23.160;2023-05-02T06:21:04;94538.94;;;13.70;100.00
11049;BME280;5577;42.706;23.160;2023-05-02T06:23:48;94506.94;;;13.67;100.00
11049;BME280;5577;42.706;23.160;2023-05-02T06:26:32;94533.25;;;13.94;100.00
11049;BME280;5577;42.706;23.160;2023-05-02T06:29:16;94535.66;;;14.03;100.00
11049;BME280;5577;42.706;23.160;2023-05-02T06:32:00;94544.22;;;14.15;100.00
11049;BME280;5577;42.706;23.160;2023-05-02T06:34:44;94509.91;;;14.10;100.00
11049;BME280;5577;42.706;23.160;2023-05-02T06:37:32;94532.72;;;14.34;100.00
11049;BME280;5577;42.706;23.160;2023-05-02T06:40:17;94524.38;;;14.35;100.00
11049;BME280;5577;42.706;23.160;2023-05-02T06:43:01;94516.38;;;14.32;100.00
11049;BME280;5577;42.706;23.160;2023-05-02T06:45:45;94532.72;;;14.60;100.00
11049;BME280;5577;42.706;23.160;2023-05-02T06:48:29;94525.69;;;14.75;100.00
11049;BME280;5577;42.706;23.160;2023-05-02T06:51:13;94530.72;;;14.80;100.00
11049;BME280;5577;42.706;23.160;2023-05-02T06:53:58;94509.22;;;14.66;100.00
11049;BME280;5577;42.706;23.160;2023-05-02T06:56:42;94532.50;;;14.72;100.00
11049;BME280;5577;42.706;23.160;2023-05-02T06:59:26;94518.50;;;14.79;100.00
11049;BME280;5577;42.706;23.160;2023-05-02T07:02:10;94501.84;;;14.85;100.00
11049;BME280;5577;42.706;23.160;2023-05-02T07:04:54;94533.00;;;15.14;100.00
11049;BME280;5577;42.706;23.160;2023-05-02T07:07:38;94530.72;;;15.13;100.00
11049;BME280;5577;42.706;23.160;2023-05-02T07:10:22;94533.47;;;15.20;100.00
11049;BME280;5577;42.706;23.160;2023-05-02T07:13:06;94537.06;;;15.34;100.00
11049;BME280;5577;42.706;23.160;2023-05-02T07:15:50;94528.09;;;15.16;98.67
11049;BME280;5577;42.706;23.160;2023-05-02T07:18:35;94540.22;;;15.10;96.68
11049;BME280;5577;42.706;23.160;2023-05-02T07:21:20;94542.63;;;15.22;97.95
11049;BME280;5577;42.706;23.160;2023-05-02T07:24:03;94532.38;;;15.28;100.00
11049;BME280;5577;42.706;23.160;2023-05-02T07:26:48;94530.03;;;15.52;96.83
11049;BME280;5577;42.706;23.160;2023-05-02T07:29:31;94535.94;;;15.75;98.78
11049;BME280;5577;42.706;23.160;2023-05-02T07:32:15;94537.63;;;15.90;88.68
11049;BME280;5577;42.706;23.160;2023-05-02T07:34:59;94530.38;;;15.91;86.89
11049;BME280;5577;42.706;23.160;2023-05-02T07:37:43;94531.66;;;16.07;86.64
11049;BME280;5577;42.706;23.160;2023-05-02T07:40:27;94538.69;;;16.29;83.79
11049;BME280;5577;42.706;23.160;2023-05-02T07:43:12;94540.59;;;16.29;81.22
11049;BME280;5577;42.706;23.160;2023-05-02T07:45:56;94536.25;;;16.61;80.28
11049;BME280;5577;42.706;23.160;2023-05-02T07:48:40;94539.56;;;16.44;80.13
11049;BME280;5577;42.706;23.160;2023-05-02T07:51:25;94531.88;;;16.35;78.71
11049;BME280;5577;42.706;23.160;2023-05-02T07:54:20;94534.66;;;16.49;76.30
11049;BME280;5577;42.706;23.160;2023-05-02T07:57:04;94540.50;;;16.69;73.64
11049;BME280;5577;42.706;23.160;2023-05-02T07:59:51;94533.25;;;16.73;73.87
11049;BME280;5577;42.706;23.160;2023-05-02T08:02:35;94534.81;;;16.81;72.76
11049;BME280;5577;42.706;23.160;2023-05-02T08:05:22;94535.22;;;16.83;69.38
11049;BME280;5577;42.706;23.160;2023-05-02T08:08:06;94532.59;;;16.90;70.79
11049;BME280;5577;42.706;23.160;2023-05-02T08:10:50;94530.75;;;17.08;68.46
11049;BME280;5577;42.706;23.160;2023-05-02T08:13:34;94540.41;;;17.41;65.53
11049;BME280;5577;42.706;23.160;2023-05-02T08:16:19;94538.19;;;17.53;68.98
11049;BME280;5577;42.706;23.160;2023-05-02T08:19:03;94535.09;;;17.55;65.58
11049;BME280;5577;42.706;23.160;2023-05-02T08:21:47;94537.41;;;17.56;64.21
11049;BME280;5577;42.706;23.160;2023-05-02T08:24:30;94547.03;;;17.82;66.08
11049;BME280;5577;42.706;23.160;2023-05-02T08:27:14;94540.53;;;18.11;63.28
11049;BME280;5577;42.706;23.160;2023-05-02T08:29:58;94544.38;;;18.17;61.31
11049;BME280;5577;42.706;23.160;2023-05-02T08:32:44;94534.44;;;18.45;63.16
11049;BME280;5577;42.706;23.160;2023-05-02T08:35:29;94538.56;;;18.81;59.86
11049;BME280;5577;42.706;23.160;2023-05-02T08:38:13;94533.91;;;18.99;58.75
11049;BME280;5577;42.706;23.160;2023-05-02T08:40:57;94531.94;;;19.10;59.61
11049;BME280;5577;42.706;23.160;2023-05-02T08:43:41;94521.88;;;19.42;56.18
11049;BME280;5577;42.706;23.160;2023-05-02T08:46:25;94525.03;;;19.16;57.29
11049;BME280;5577;42.706;23.160;2023-05-02T08:49:12;94527.19;;;19.53;57.56
11049;BME280;5577;42.706;23.160;2023-05-02T08:51:59;94524.34;;;19.81;55.40
11049;BME280;5577;42.706;23.160;2023-05-02T08:54:43;94527.03;;;19.81;55.71
11049;BME280;5577;42.706;23.160;2023-05-02T08:57:31;94519.94;;;20.05;56.80
11049;BME280;5577;42.706;23.160;2023-05-02T09:00:16;94515.72;;;20.04;52.99
11049;BME280;5577;42.706;23.160;2023-05-02T09:06:10;94514.25;;;20.84;50.58
11049;BME280;5577;42.706;23.160;2023-05-02T09:08:59;94515.47;;;21.13;52.00
11049;BME280;5577;42.706;23.160;2023-05-02T09:11:45;94489.81;;;20.31;50.42
11049;BME280;5577;42.706;23.160;2023-05-02T09:14:30;94510.91;;;19.81;52.68
11049;BME280;5577;42.706;23.160;2023-05-02T09:17:15;94512.16;;;19.66;54.53
11049;BME280;5577;42.706;23.160;2023-05-02T09:19:59;94509.63;;;19.34;53.89
11049;BME280;5577;42.706;23.160;2023-05-02T09:22:51;94519.75;;;18.99;55.24
11049;BME280;5577;42.706;23.160;2023-05-02T09:25:35;94521.75;;;18.70;55.52
11049;BME280;5577;42.706;23.160;2023-05-02T09:28:20;94516.34;;;18.81;55.84
11049;BME280;5577;42.706;23.160;2023-05-02T09:31:22;94519.81;;;18.78;54.39
11049;BME280;5577;42.706;23.160;2023-05-02T09:34:14;94515.06;;;19.13;53.81
11049;BME280;5577;42.706;23.160;2023-05-02T09:36:58;94502.84;;;19.05;52.90
11049;BME280;5577;42.706;23.160;2023-05-02T09:40:06;94511.25;;;19.11;54.43
11049;BME280;5577;42.706;23.160;2023-05-02T09:42:51;94508.09;;;19.37;53.32
11049;BME280;5577;42.706;23.160;2023-05-02T09:45:35;94501.75;;;20.26;52.29
11049;BME280;5577;42.706;23.160;2023-05-02T09:48:19;94503.66;;;20.29;50.45
11049;BME280;5577;42.706;23.160;2023-05-02T09:51:03;94498.97;;;19.86;50.37
11049;BME280;5577;42.706;23.160;2023-05-02T09:53:59;94491.75;;;19.72;50.20
11049;BME280;5577;42.706;23.160;2023-05-02T09:56:55;94496.75;;;20.65;50.65
11049;BME280;5577;42.706;23.160;2023-05-02T09:59:40;94475.47;;;20.41;49.42
11049;BME280;5577;42.706;23.160;2023-05-02T10:02:25;94474.69;;;20.44;47.43
11049;BME280;5577;42.706;23.160;2023-05-02T10:05:09;94494.25;;;20.85;48.20
11049;BME280;5577;42.706;23.160;2023-05-02T10:07:55;94481.22;;;20.43;48.46
11049;BME280;5577;42.706;23.160;2023-05-02T10:10:40;94480.44;;;20.46;48.10
11049;BME280;5577;42.706;23.160;2023-05-02T10:13:27;94479.28;;;21.17;48.06
11049;BME280;5577;42.706;23.160;2023-05-02T10:16:21;94484.84;;;21.60;46.12
11049;BME280;5577;42.706;23.160;2023-05-02T10:19:08;94469.19;;;22.27;45.09
11049;BME280;5577;42.706;23.160;2023-05-02T10:21:53;94471.41;;;22.56;42.66
11049;BME280;5577;42.706;23.160;2023-05-02T10:24:39;94474.41;;;23.00;42.52
11049;BME280;5577;42.706;23.160;2023-05-02T10:27:24;94473.22;;;23.76;42.30
11049;BME280;5577;42.706;23.160;2023-05-02T10:30:09;94445.75;;;24.41;39.06
11049;BME280;5577;42.706;23.160;2023-05-02T10:32:58;94463.13;;;24.12;37.84
11049;BME280;5577;42.706;23.160;2023-05-02T10:35:45;94462.91;;;23.71;38.42
11049;BME280;5577;42.706;23.160;2023-05-02T10:38:30;94461.66;;;24.84;38.00
11049;BME280;5577;42.706;23.160;2023-05-02T10:41:18;94459.91;;;25.19;37.57
11049;BME280;5577;42.706;23.160;2023-05-02T10:44:03;94435.81;;;24.95;36.12
11049;BME280;5577;42.706;23.160;2023-05-02T10:46:50;94462.16;;;24.50;35.70
11049;BME280;5577;42.706;23.160;2023-05-02T10:49:48;94461.28;;;26.27;35.35
11049;BME280;5577;42.706;23.160;2023-05-02T10:52:36;94466.31;;;27.18;33.93
11049;BME280;5577;42.706;23.160;2023-05-02T10:55:22;94454.97;;;24.44;35.36
11049;BME280;5577;42.706;23.160;2023-05-02T11:00:50;94451.34;;;25.74;33.84
11049;BME280;5577;42.706;23.160;2023-05-02T11:03:54;94448.22;;;25.22;34.93
11049;BME280;5577;42.706;23.160;2023-05-02T11:09:43;94446.78;;;25.58;34.01
11049;BME280;5577;42.706;23.160;2023-05-02T11:12:49;94443.25;;;27.01;32.34
11049;BME280;5577;42.706;23.160;2023-05-02T11:18:24;94440.22;;;28.12;30.97
11049;BME280;5577;42.706;23.160;2023-05-02T11:21:27;94429.28;;;27.64;29.84
11049;BME280;5577;42.706;23.160;2023-05-02T11:24:41;94431.06;;;26.03;31.97
11049;BME280;5577;42.706;23.160;2023-05-02T11:30:14;94432.34;;;25.86;32.57
11049;BME280;5577;42.706;23.160;2023-05-02T11:33:18;94425.03;;;26.33;31.11
11049;BME280;5577;42.706;23.160;2023-05-02T11:36:03;94402.31;;;26.74;31.17
11049;BME280;5577;42.706;23.160;2023-05-02T11:38:47;94416.22;;;28.47;29.28
11049;BME280;5577;42.706;23.160;2023-05-02T11:41:40;94419.00;;;27.98;28.42
11049;BME280;5577;42.706;23.160;2023-05-02T11:44:25;94410.00;;;28.37;28.60
11049;BME280;5577;42.706;23.160;2023-05-02T11:47:09;94408.25;;;29.48;27.84
11049;BME280;5577;42.706;23.160;2023-05-02T11:49:56;94397.53;;;30.42;26.06
11049;BME280;5577;42.706;23.160;2023-05-02T11:52:43;94401.59;;;30.47;26.60
11049;BME280;5577;42.706;23.160;2023-05-02T11:55:28;94391.84;;;29.15;26.16
11049;BME280;5577;42.706;23.160;2023-05-02T11:58:17;94385.38;;;28.50;27.44
11049;BME280;5577;42.706;23.160;2023-05-02T12:01:14;94395.91;;;28.21;28.01
11049;BME280;5577;42.706;23.160;2023-05-02T12:04:07;94371.91;;;28.46;27.33
11049;BME280;5577;42.706;23.160;2023-05-02T12:06:55;94373.88;;;28.46;27.34
11049;BME280;5577;42.706;23.160;2023-05-02T12:09:50;94367.47;;;27.64;29.40
11049;BME280;5577;42.706;23.160;2023-05-02T12:12:35;94364.03;;;26.81;29.97
11049;BME280;5577;42.706;23.160;2023-05-02T12:15:20;94365.72;;;26.87;29.62
11049;BME280;5577;42.706;23.160;2023-05-02T12:18:05;94363.56;;;27.04;29.88
11049;BME280;5577;42.706;23.160;2023-05-02T12:20:50;94338.16;;;27.59;29.16
11049;BME280;5577;42.706;23.160;2023-05-02T12:23:35;94348.94;;;27.10;28.86
11049;BME280;5577;42.706;23.160;2023-05-02T12:26:20;94342.31;;;27.42;29.78
11049;BME280;5577;42.706;23.160;2023-05-02T12:29:07;94348.25;;;27.49;29.14
11049;BME280;5577;42.706;23.160;2023-05-02T12:31:51;94345.47;;;26.79;30.00
11049;BME280;5577;42.706;23.160;2023-05-02T12:34:36;94332.72;;;27.59;29.96
11049;BME280;5577;42.706;23.160;2023-05-02T12:37:22;94329.81;;;28.11;29.43
11049;BME280;5577;42.706;23.160;2023-05-02T12:40:17;94301.00;;;27.74;29.32
11049;BME280;5577;42.706;23.160;2023-05-02T12:43:03;94324.53;;;28.17;28.66
11049;BME280;5577;42.706;23.160;2023-05-02T12:45:49;94291.34;;;27.73;28.15
11049;BME280;5577;42.706;23.160;2023-05-02T12:48:36;94323.63;;;28.56;28.06
11049;BME280;5577;42.706;23.160;2023-05-02T12:51:21;94319.50;;;28.06;28.63
11049;BME280;5577;42.706;23.160;2023-05-02T12:54:06;94310.91;;;28.26;28.81
11049;BME280;5577;42.706;23.160;2023-05-02T12:56:51;94306.88;;;27.73;28.63
11049;BME280;5577;42.706;23.160;2023-05-02T12:59:35;94302.78;;;27.68;28.50
11049;BME280;5577;42.706;23.160;2023-05-02T13:02:20;94271.31;;;27.09;29.35
11049;BME280;5577;42.706;23.160;2023-05-02T13:05:18;94291.09;;;27.98;28.64
11049;BME280;5577;42.706;23.160;2023-05-02T13:08:02;94300.84;;;26.89;28.59
11049;BME280;5577;42.706;23.160;2023-05-02T13:10:47;94301.78;;;26.52;29.00
11049;BME280;5577;42.706;23.160;2023-05-02T13:13:31;94306.38;;;25.87;29.81
11049;BME280;5577;42.706;23.160;2023-05-02T13:16:15;94293.22;;;26.32;28.68
11049;BME280;5577;42.706;23.160;2023-05-02T13:18:59;94300.97;;;26.64;28.39
11049;BME280;5577;42.706;23.160;2023-05-02T13:21:43;94290.72;;;27.78;28.65
11049;BME280;5577;42.706;23.160;2023-05-02T13:24:27;94296.81;;;28.81;26.77
11049;BME280;5577;42.706;23.160;2023-05-02T13:27:11;94302.59;;;27.93;28.11
11049;BME280;5577;42.706;23.160;2023-05-02T13:29:55;94288.69;;;26.72;28.39
11049;BME280;5577;42.706;23.160;2023-05-02T13:32:39;94278.75;;;25.80;28.94
11049;BME280;5577;42.706;23.160;2023-05-02T13:35:24;94268.66;;;27.76;28.14
11049;BME280;5577;42.706;23.160;2023-05-02T13:38:08;94278.84;;;28.03;27.24
11049;BME280;5577;42.706;23.160;2023-05-02T13:40:53;94291.38;;;27.33;27.69
11049;BME280;5577;42.706;23.160;2023-05-02T13:43:37;94286.75;;;26.82;28.39
11049;BME280;5577;42.706;23.160;2023-05-02T13:46:23;94275.09;;;27.03;28.24
11049;BME280;5577;42.706;23.160;2023-05-02T13:49:07;94267.38;;;26.28;29.00
11049;BME280;5577;42.706;23.160;2023-05-02T13:51:51;94262.00;;;27.59;27.95
11049;BME280;5577;42.706;23.160;2023-05-02T13:54:35;94269.31;;;27.31;28.23
11049;BME280;5577;42.706;23.160;2023-05-02T13:57:19;94269.25;;;26.83;28.24
11049;BME280;5577;42.706;23.160;2023-05-02T14:00:03;94255.19;;;27.54;27.96
11049;BME280;5577;42.706;23.160;2023-05-02T14:02:47;94268.34;;;27.65;27.22
11049;BME280;5577;42.706;23.160;2023-05-02T14:05:31;94269.94;;;28.11;27.62
11049;BME280;5577;42.706;23.160;2023-05-02T14:08:15;94271.41;;;26.88;28.29
11049;BME280;5577;42.706;23.160;2023-05-02T14:11:01;94274.50;;;26.56;28.31
11049;BME280;5577;42.706;23.160;2023-05-02T14:13:45;94270.34;;;26.21;28.47
11049;BME280;5577;42.706;23.160;2023-05-02T14:16:29;94263.00;;;25.28;29.42
11049;BME280;5577;42.706;23.160;2023-05-02T14:19:13;94278.38;;;24.93;29.89
11049;BME280;5577;42.706;23.160;2023-05-02T14:21:58;94248.50;;;24.84;30.11
11049;BME280;5577;42.706;23.160;2023-05-02T14:24:41;94272.53;;;25.08;30.53
11049;BME280;5577;42.706;23.160;2023-05-02T14:27:25;94276.09;;;25.04;30.83
11049;BME280;5577;42.706;23.160;2023-05-02T14:30:10;94277.00;;;24.48;30.38
11049;BME280;5577;42.706;23.160;2023-05-02T14:32:54;94270.31;;;23.67;31.06
11049;BME280;5577;42.706;23.160;2023-05-02T14:35:39;94270.84;;;23.46;31.90
11049;BME280;5577;42.706;23.160;2023-05-02T14:38:22;94256.44;;;23.65;31.95
11049;BME280;5577;42.706;23.160;2023-05-02T14:41:07;94258.72;;;22.86;32.71
11049;BME280;5577;42.706;23.160;2023-05-02T14:43:51;94258.94;;;22.60;32.78
11049;BME280;5577;42.706;23.160;2023-05-02T14:46:36;94260.44;;;22.41;33.28
11049;BME280;5577;42.706;23.160;2023-05-02T14:49:20;94267.75;;;22.96;32.58
11049;BME280;5577;42.706;23.160;2023-05-02T14:52:04;94268.47;;;22.44;32.76
11049;BME280;5577;42.706;23.160;2023-05-02T14:54:48;94265.38;;;22.46;33.67
11049;BME280;5577;42.706;23.160;2023-05-02T14:57:31;94278.03;;;22.29;33.52
11049;BME280;5577;42.706;23.160;2023-05-02T15:00:16;94280.25;;;22.54;32.73
11049;BME280;5577;42.706;23.160;2023-05-02T15:03:00;94273.75;;;22.52;32.86
11049;BME280;5577;42.706;23.160;2023-05-02T15:05:45;94268.78;;;21.91;33.44
11049;BME280;5577;42.706;23.160;2023-05-02T15:08:29;94270.78;;;21.87;33.75
11049;BME280;5577;42.706;23.160;2023-05-02T15:11:13;94270.00;;;22.06;33.89
11049;BME280;5577;42.706;23.160;2023-05-02T15:13:59;94266.72;;;21.53;34.42